Mudah untuk digunakan

vPilot, dan Squawkbox

VATSIM memiliki 3 pilot client yang berbeda. Semuanya memberikan kemudahan yang sama bagi pengguna untuk online ke dalam simulasi VATSIM. Semuanya memiliki panduan yang lengkap untuk membantu Anda menggunakan aplikasi ini.

Radar client yang seperti aslinya

EuroScope & VRC

VATSIM memiliki radar client yang sangat advanced karena mensimulasikan secara nyata bagaimana seorang ATC didunia nyata. Walaupun dikatakan advanced, kedua radar client ini sangat mudah untuk digunakan. Dan hal menarik lainnya, VATSIM menggunakan ATIS dalam bentuk suara!

Dengan VATSIM, Anda dapat belajar lebih banyak tentang aviasi.
Anda juga dapat berdiskusi dengan pencinta aviasi lainnya.

Pengalaman Yang Tidak Terlupakan

Aktifitas Terkini

Tidak ada ATC yang online!

Pilot

Callsign Nama Rute
CPA785Chanwoo Song RJAA (1389767)VHHH-WADD
KAL800Dana Wiles KCLT (1248569)WIII-RKSI
MI224RIZKY MERDIETIO WARR (1452993)WSSS-WARR

*Informasi ini bisa saja tidak mutakhir.

METAR

Nama Bandara - Lokasi (ICAO) METAR
Sultan Hasanuddin - Makassar (WAAA)METAR WAAA 240930Z 20003KT 150V230 9999 FEW017CB SCT018 28/27 Q1007 RERA|NOSIG=
I Gusti Ngurah Rai - Denpasar (WADD)METAR WADD 240930Z 12017KT 9999 FEW018 29/25 Q1008|NOSIG=
Ahmad Yani - Semarang (WAHS)METAR WAHS 240930Z 36007KT 7000 SCT014 32/24 Q1007|NOSIG=
Juanda - Surabaya (WARR)METAR WARR 240930Z 11012KT 9999 FEW020 30/24 Q1007|NOSIG=
Soekarno Hatta - Jakarta (WIII)METAR WIII 240930Z 14008KT 7000 SCT020 26/23 Q1008|NOSIG=
Halim Perdana Kusuma - Jakarta (WIHH)METAR WIHH 240900Z 20003KT 5000 -RA SCT017 25/24 Q1008|NOSIG=
Kualanamu International Airport - Deli Serdang (WIMM)METAR WIMM 240930Z 09008KT 9999 SCT017 33/24 Q1005|NOSIG=

*METAR didapatkan dari BMKG. Informasi ini bisa saja tidak mutakhir.

VATSIM Indonesia vACC VATSIM South East Asia VATSIM Asia